sensor_id;sensor_type;location;lat;lon;timestamp;pressure;altitude;pressure_sealevel;temperature;humidity
967;BME280;56108;48.730;9.304;2023-04-26T00:00:53;97509.03;;;5.60;100.00
967;BME280;56108;48.730;9.304;2023-04-26T00:03:01;97505.34;;;5.63;100.00
967;BME280;56108;48.730;9.304;2023-04-26T00:05:11;97504.81;;;5.56;100.00
967;BME280;56108;48.730;9.304;2023-04-26T00:07:23;97506.31;;;5.44;100.00
967;BME280;56108;48.730;9.304;2023-04-26T00:09:32;97511.28;;;5.33;100.00
967;BME280;56108;48.730;9.304;2023-04-26T00:11:40;97512.66;;;5.23;100.00
967;BME280;56108;48.730;9.304;2023-04-26T00:13:48;97507.69;;;5.17;100.00
967;BME280;56108;48.730;9.304;2023-04-26T00:15:56;97519.09;;;5.17;100.00
967;BME280;56108;48.730;9.304;2023-04-26T00:18:04;97525.84;;;5.23;100.00
967;BME280;56108;48.730;9.304;2023-04-26T00:20:13;97520.81;;;5.53;100.00
967;BME280;56108;48.730;9.304;2023-04-26T00:22:23;97522.06;;;5.46;100.00
967;BME280;56108;48.730;9.304;2023-04-26T00:24:32;97518.56;;;5.45;100.00
967;BME280;56108;48.730;9.304;2023-04-26T00:26:40;97509.16;;;5.40;100.00
967;BME280;56108;48.730;9.304;2023-04-26T00:28:49;97506.13;;;5.30;100.00
967;BME280;56108;48.730;9.304;2023-04-26T00:30:58;97502.66;;;5.30;100.00
967;BME280;56108;48.730;9.304;2023-04-26T00:33:06;97503.59;;;5.29;100.00
967;BME280;56108;48.730;9.304;2023-04-26T00:35:14;97505.47;;;5.44;100.00
967;BME280;56108;48.730;9.304;2023-04-26T00:37:28;97508.84;;;5.46;100.00
967;BME280;56108;48.730;9.304;2023-04-26T00:39:36;97508.47;;;5.36;100.00
967;BME280;56108;48.730;9.304;2023-04-26T00:41:46;97504.78;;;5.21;100.00
967;BME280;56108;48.730;9.304;2023-04-26T00:43:54;97499.91;;;5.14;100.00
967;BME280;56108;48.730;9.304;2023-04-26T00:46:02;97498.09;;;4.97;100.00
967;BME280;56108;48.730;9.304;2023-04-26T00:48:14;97496.88;;;4.85;100.00
967;BME280;56108;48.730;9.304;2023-04-26T00:50:22;97493.78;;;4.77;100.00
967;BME280;56108;48.730;9.304;2023-04-26T00:52:33;97489.66;;;4.71;100.00
967;BME280;56108;48.730;9.304;2023-04-26T00:54:42;97491.88;;;4.62;100.00
967;BME280;56108;48.730;9.304;2023-04-26T00:56:50;97492.09;;;4.57;100.00
967;BME280;56108;48.730;9.304;2023-04-26T00:58:59;97486.34;;;4.49;100.00
967;BME280;56108;48.730;9.304;2023-04-26T01:01:07;97493.88;;;4.57;100.00
967;BME280;56108;48.730;9.304;2023-04-26T01:03:15;97493.50;;;4.64;100.00
967;BME280;56108;48.730;9.304;2023-04-26T01:05:24;97493.66;;;4.61;100.00
967;BME280;56108;48.730;9.304;2023-04-26T01:07:34;97487.75;;;4.75;100.00
967;BME280;56108;48.730;9.304;2023-04-26T01:09:43;97480.75;;;4.74;100.00
967;BME280;56108;48.730;9.304;2023-04-26T01:11:51;97484.19;;;4.93;100.00
967;BME280;56108;48.730;9.304;2023-04-26T01:14:02;97487.38;;;4.83;100.00
967;BME280;56108;48.730;9.304;2023-04-26T01:16:13;97486.09;;;4.72;100.00
967;BME280;56108;48.730;9.304;2023-04-26T01:18:24;97481.88;;;4.68;100.00
967;BME280;56108;48.730;9.304;2023-04-26T01:20:33;97480.69;;;4.76;100.00
967;BME280;56108;48.730;9.304;2023-04-26T01:22:44;97479.13;;;4.71;100.00
967;BME280;56108;48.730;9.304;2023-04-26T01:24:54;97478.06;;;4.57;100.00
967;BME280;56108;48.730;9.304;2023-04-26T01:27:03;97477.81;;;4.44;100.00
967;BME280;56108;48.730;9.304;2023-04-26T01:29:15;97479.00;;;4.37;100.00
967;BME280;56108;48.730;9.304;2023-04-26T01:31:23;97469.59;;;4.31;100.00
967;BME280;56108;48.730;9.304;2023-04-26T01:33:31;97471.59;;;4.26;100.00
967;BME280;56108;48.730;9.304;2023-04-26T01:35:39;97479.00;;;4.18;100.00
967;BME280;56108;48.730;9.304;2023-04-26T01:37:50;97471.44;;;4.10;100.00
967;BME280;56108;48.730;9.304;2023-04-26T01:39:59;97472.94;;;4.16;100.00
967;BME280;56108;48.730;9.304;2023-04-26T01:42:10;97470.66;;;4.46;100.00
967;BME280;56108;48.730;9.304;2023-04-26T01:44:18;97482.69;;;4.33;100.00
967;BME280;56108;48.730;9.304;2023-04-26T01:46:27;97485.91;;;4.21;100.00
967;BME280;56108;48.730;9.304;2023-04-26T01:48:44;97476.50;;;4.15;100.00
967;BME280;56108;48.730;9.304;2023-04-26T01:50:53;97472.25;;;4.12;100.00
967;BME280;56108;48.730;9.304;2023-04-26T01:53:03;97468.44;;;3.99;100.00
967;BME280;56108;48.730;9.304;2023-04-26T01:55:12;97480.84;;;3.97;100.00
967;BME280;56108;48.730;9.304;2023-04-26T01:57:20;97480.16;;;4.12;100.00
967;BME280;56108;48.730;9.304;2023-04-26T01:59:28;97481.97;;;4.10;100.00
967;BME280;56108;48.730;9.304;2023-04-26T02:01:36;97490.44;;;3.98;100.00
967;BME280;56108;48.730;9.304;2023-04-26T02:03:47;97488.84;;;3.94;100.00
967;BME280;56108;48.730;9.304;2023-04-26T02:05:56;97487.47;;;3.85;100.00
967;BME280;56108;48.730;9.304;2023-04-26T02:08:08;97491.50;;;3.74;100.00
967;BME280;56108;48.730;9.304;2023-04-26T02:10:19;97491.88;;;3.66;100.00
967;BME280;56108;48.730;9.304;2023-04-26T02:12:27;97486.06;;;3.58;100.00
967;BME280;56108;48.730;9.304;2023-04-26T02:14:36;97494.16;;;3.53;100.00
967;BME280;56108;48.730;9.304;2023-04-26T02:16:47;97479.75;;;3.62;100.00
967;BME280;56108;48.730;9.304;2023-04-26T02:18:55;97484.16;;;3.61;100.00
967;BME280;56108;48.730;9.304;2023-04-26T02:21:06;97481.72;;;3.57;100.00
967;BME280;56108;48.730;9.304;2023-04-26T02:23:18;97478.38;;;3.53;100.00
967;BME280;56108;48.730;9.304;2023-04-26T02:25:28;97475.81;;;3.52;100.00
967;BME280;56108;48.730;9.304;2023-04-26T02:27:37;97482.97;;;3.48;100.00
967;BME280;56108;48.730;9.304;2023-04-26T02:29:45;97476.00;;;3.47;100.00
967;BME280;56108;48.730;9.304;2023-04-26T02:31:54;97474.88;;;3.53;100.00
967;BME280;56108;48.730;9.304;2023-04-26T02:34:02;97478.63;;;3.67;100.00
967;BME280;56108;48.730;9.304;2023-04-26T02:36:10;97494.06;;;3.55;100.00
967;BME280;56108;48.730;9.304;2023-04-26T02:38:21;97497.78;;;3.51;100.00
967;BME280;56108;48.730;9.304;2023-04-26T02:40:30;97512.09;;;3.44;100.00
967;BME280;56108;48.730;9.304;2023-04-26T02:42:40;97507.00;;;3.40;100.00
967;BME280;56108;48.730;9.304;2023-04-26T02:44:49;97512.94;;;3.44;100.00
967;BME280;56108;48.730;9.304;2023-04-26T02:46:57;97513.09;;;3.41;100.00
967;BME280;56108;48.730;9.304;2023-04-26T02:49:06;97505.06;;;3.44;100.00
967;BME280;56108;48.730;9.304;2023-04-26T02:51:14;97509.66;;;3.39;100.00
967;BME280;56108;48.730;9.304;2023-04-26T02:53:25;97509.91;;;3.33;100.00
967;BME280;56108;48.730;9.304;2023-04-26T02:55:34;97510.09;;;3.28;100.00
967;BME280;56108;48.730;9.304;2023-04-26T02:57:42;97515.25;;;3.31;100.00
967;BME280;56108;48.730;9.304;2023-04-26T02:59:50;97512.63;;;3.31;100.00
967;BME280;56108;48.730;9.304;2023-04-26T03:01:59;97512.69;;;3.30;100.00
967;BME280;56108;48.730;9.304;2023-04-26T03:04:07;97514.41;;;3.31;100.00
967;BME280;56108;48.730;9.304;2023-04-26T03:06:16;97513.41;;;3.33;100.00
967;BME280;56108;48.730;9.304;2023-04-26T03:08:27;97513.88;;;3.43;100.00
967;BME280;56108;48.730;9.304;2023-04-26T03:10:35;97513.09;;;3.61;100.00
967;BME280;56108;48.730;9.304;2023-04-26T03:12:43;97507.50;;;3.69;100.00
967;BME280;56108;48.730;9.304;2023-04-26T03:14:52;97507.03;;;3.80;100.00
967;BME280;56108;48.730;9.304;2023-04-26T03:17:02;97508.88;;;3.78;100.00
967;BME280;56108;48.730;9.304;2023-04-26T03:19:11;97509.75;;;3.78;100.00
967;BME280;56108;48.730;9.304;2023-04-26T03:21:19;97510.59;;;3.79;100.00
967;BME280;56108;48.730;9.304;2023-04-26T03:23:30;97513.03;;;3.83;100.00
967;BME280;56108;48.730;9.304;2023-04-26T03:25:38;97525.25;;;3.84;100.00
967;BME280;56108;48.730;9.304;2023-04-26T03:27:46;97525.41;;;3.81;100.00
967;BME280;56108;48.730;9.304;2023-04-26T03:29:55;97533.22;;;3.83;100.00
967;BME280;56108;48.730;9.304;2023-04-26T03:32:04;97533.34;;;3.80;100.00
967;BME280;56108;48.730;9.304;2023-04-26T03:34:13;97541.31;;;3.78;100.00
967;BME280;56108;48.730;9.304;2023-04-26T03:36:21;97545.84;;;3.75;100.00
967;BME280;56108;48.730;9.304;2023-04-26T03:38:35;97547.72;;;3.73;100.00
967;BME280;56108;48.730;9.304;2023-04-26T03:40:43;97540.94;;;3.67;100.00
967;BME280;56108;48.730;9.304;2023-04-26T03:42:51;97549.94;;;3.61;100.00
967;BME280;56108;48.730;9.304;2023-04-26T03:44:59;97550.13;;;3.57;100.00
967;BME280;56108;48.730;9.304;2023-04-26T03:47:07;97545.19;;;3.49;100.00
967;BME280;56108;48.730;9.304;2023-04-26T03:49:15;97541.09;;;3.42;100.00
967;BME280;56108;48.730;9.304;2023-04-26T03:51:24;97542.28;;;3.35;100.00
967;BME280;56108;48.730;9.304;2023-04-26T03:53:35;97535.44;;;3.31;100.00
967;BME280;56108;48.730;9.304;2023-04-26T03:55:43;97529.44;;;3.27;100.00
967;BME280;56108;48.730;9.304;2023-04-26T03:57:52;97521.03;;;3.19;100.00
967;BME280;56108;48.730;9.304;2023-04-26T04:00:00;97522.06;;;3.15;100.00
967;BME280;56108;48.730;9.304;2023-04-26T04:02:18;97529.88;;;3.17;100.00
967;BME280;56108;48.730;9.304;2023-04-26T04:04:27;97532.59;;;3.15;100.00
967;BME280;56108;48.730;9.304;2023-04-26T04:06:36;97520.41;;;3.12;100.00
967;BME280;56108;48.730;9.304;2023-04-26T04:08:47;97525.00;;;3.07;100.00
967;BME280;56108;48.730;9.304;2023-04-26T04:10:55;97527.69;;;3.06;100.00
967;BME280;56108;48.730;9.304;2023-04-26T04:13:05;97529.41;;;3.07;100.00
967;BME280;56108;48.730;9.304;2023-04-26T04:15:13;97533.09;;;3.03;100.00
967;BME280;56108;48.730;9.304;2023-04-26T04:17:24;97522.69;;;3.00;100.00
967;BME280;56108;48.730;9.304;2023-04-26T04:19:32;97523.44;;;3.03;100.00
967;BME280;56108;48.730;9.304;2023-04-26T04:21:40;97519.88;;;3.04;100.00
967;BME280;56108;48.730;9.304;2023-04-26T04:23:52;97514.38;;;3.10;100.00
967;BME280;56108;48.730;9.304;2023-04-26T04:26:00;97514.25;;;3.13;100.00
967;BME280;56108;48.730;9.304;2023-04-26T04:28:09;97509.97;;;3.11;100.00
967;BME280;56108;48.730;9.304;2023-04-26T04:30:18;97508.84;;;3.17;100.00
967;BME280;56108;48.730;9.304;2023-04-26T04:32:28;97510.38;;;3.22;100.00
967;BME280;56108;48.730;9.304;2023-04-26T04:34:37;97507.19;;;3.36;100.00
967;BME280;56108;48.730;9.304;2023-04-26T04:36:45;97516.06;;;3.54;100.00
967;BME280;56108;48.730;9.304;2023-04-26T04:38:57;97510.47;;;3.82;100.00
967;BME280;56108;48.730;9.304;2023-04-26T04:41:06;97522.81;;;4.00;100.00
967;BME280;56108;48.730;9.304;2023-04-26T04:43:15;97528.00;;;4.60;100.00
967;BME280;56108;48.730;9.304;2023-04-26T04:45:24;97533.75;;;5.23;100.00
967;BME280;56108;48.730;9.304;2023-04-26T04:47:34;97562.66;;;5.61;100.00
967;BME280;56108;48.730;9.304;2023-04-26T04:49:43;97580.44;;;5.57;100.00
967;BME280;56108;48.730;9.304;2023-04-26T04:51:52;97589.25;;;5.75;100.00
967;BME280;56108;48.730;9.304;2023-04-26T04:54:10;97596.72;;;6.52;100.00
967;BME280;56108;48.730;9.304;2023-04-26T04:56:18;97597.72;;;7.14;100.00
967;BME280;56108;48.730;9.304;2023-04-26T04:58:27;97602.84;;;7.49;100.00
967;BME280;56108;48.730;9.304;2023-04-26T05:00:36;97594.81;;;8.69;100.00
967;BME280;56108;48.730;9.304;2023-04-26T05:02:56;97609.84;;;10.19;93.65
967;BME280;56108;48.730;9.304;2023-04-26T05:05:06;97620.44;;;11.47;81.76
967;BME280;56108;48.730;9.304;2023-04-26T05:07:15;97635.97;;;12.14;75.87
967;BME280;56108;48.730;9.304;2023-04-26T05:09:26;97651.16;;;12.60;69.33
967;BME280;56108;48.730;9.304;2023-04-26T05:11:34;97664.31;;;12.85;66.60
967;BME280;56108;48.730;9.304;2023-04-26T05:13:45;97660.19;;;12.92;66.04
967;BME280;56108;48.730;9.304;2023-04-26T05:15:56;97665.34;;;12.49;66.31
967;BME280;56108;48.730;9.304;2023-04-26T05:18:05;97655.66;;;11.63;69.31
967;BME280;56108;48.730;9.304;2023-04-26T05:20:13;97645.75;;;11.16;73.63
967;BME280;56108;48.730;9.304;2023-04-26T05:22:27;97656.81;;;12.09;69.32
967;BME280;56108;48.730;9.304;2023-04-26T05:24:51;97669.91;;;12.82;65.02
967;BME280;56108;48.730;9.304;2023-04-26T05:26:59;97675.75;;;13.10;63.89
967;BME280;56108;48.730;9.304;2023-04-26T05:29:28;97665.47;;;12.23;66.77
967;BME280;56108;48.730;9.304;2023-04-26T05:31:42;97649.81;;;11.58;71.66
967;BME280;56108;48.730;9.304;2023-04-26T05:34:17;97653.06;;;11.38;73.37
967;BME280;56108;48.730;9.304;2023-04-26T05:36:30;97638.34;;;11.08;77.53
967;BME280;56108;48.730;9.304;2023-04-26T05:38:38;97650.16;;;11.54;75.69
967;BME280;56108;48.730;9.304;2023-04-26T05:40:49;97644.66;;;11.31;76.10
967;BME280;56108;48.730;9.304;2023-04-26T05:42:57;97636.53;;;11.09;77.73
967;BME280;56108;48.730;9.304;2023-04-26T05:45:07;97640.47;;;10.90;80.43
967;BME280;56108;48.730;9.304;2023-04-26T05:47:16;97650.03;;;11.18;78.72
967;BME280;56108;48.730;9.304;2023-04-26T05:49:25;97653.56;;;11.56;74.89
967;BME280;56108;48.730;9.304;2023-04-26T05:51:36;97664.03;;;11.46;73.50
967;BME280;56108;48.730;9.304;2023-04-26T05:53:46;97654.00;;;10.75;78.92
967;BME280;56108;48.730;9.304;2023-04-26T05:55:57;97663.16;;;11.09;75.63
967;BME280;56108;48.730;9.304;2023-04-26T05:58:06;97668.28;;;11.98;71.75
967;BME280;56108;48.730;9.304;2023-04-26T06:00:18;97682.41;;;12.93;65.77
967;BME280;56108;48.730;9.304;2023-04-26T06:02:27;97691.06;;;13.86;62.13
967;BME280;56108;48.730;9.304;2023-04-26T06:04:36;97709.56;;;14.65;57.81
967;BME280;56108;48.730;9.304;2023-04-26T06:06:48;97716.81;;;14.42;56.61
967;BME280;56108;48.730;9.304;2023-04-26T06:08:58;97719.97;;;14.79;55.88
967;BME280;56108;48.730;9.304;2023-04-26T06:11:09;97718.06;;;14.38;57.66
967;BME280;56108;48.730;9.304;2023-04-26T06:13:19;97707.84;;;13.77;59.14
967;BME280;56108;48.730;9.304;2023-04-26T06:15:27;97715.25;;;13.96;57.85
967;BME280;56108;48.730;9.304;2023-04-26T06:17:37;97719.59;;;14.40;56.71
967;BME280;56108;48.730;9.304;2023-04-26T06:19:47;97717.41;;;14.56;57.00
967;BME280;56108;48.730;9.304;2023-04-26T06:21:56;97730.38;;;14.72;55.28
967;BME280;56108;48.730;9.304;2023-04-26T06:24:06;97746.34;;;16.77;51.89
967;BME280;56108;48.730;9.304;2023-04-26T06:26:17;97770.44;;;18.01;47.44
967;BME280;56108;48.730;9.304;2023-04-26T06:28:26;97773.47;;;16.83;48.27
967;BME280;56108;48.730;9.304;2023-04-26T06:30:35;97759.81;;;16.27;49.51
967;BME280;56108;48.730;9.304;2023-04-26T06:32:44;97750.00;;;15.45;51.76
967;BME280;56108;48.730;9.304;2023-04-26T06:34:52;97740.44;;;15.22;52.71
967;BME280;56108;48.730;9.304;2023-04-26T06:37:01;97732.84;;;14.85;55.02
967;BME280;56108;48.730;9.304;2023-04-26T06:39:11;97738.84;;;14.56;55.01
967;BME280;56108;48.730;9.304;2023-04-26T06:41:22;97747.34;;;15.66;52.58
967;BME280;56108;48.730;9.304;2023-04-26T06:43:32;97756.34;;;15.44;50.14
967;BME280;56108;48.730;9.304;2023-04-26T06:45:45;97760.94;;;16.24;50.00
967;BME280;56108;48.730;9.304;2023-04-26T06:47:56;97779.97;;;16.81;48.18
967;BME280;56108;48.730;9.304;2023-04-26T06:50:08;97776.22;;;16.43;48.05
967;BME280;56108;48.730;9.304;2023-04-26T06:52:16;97758.03;;;15.45;51.22
967;BME280;56108;48.730;9.304;2023-04-26T06:54:27;97757.38;;;15.74;51.72
967;BME280;56108;48.730;9.304;2023-04-26T06:56:38;97769.56;;;16.28;48.58
967;BME280;56108;48.730;9.304;2023-04-26T06:58:59;97768.78;;;16.06;49.21
967;BME280;56108;48.730;9.304;2023-04-26T07:01:07;97772.84;;;16.41;47.81
967;BME280;56108;48.730;9.304;2023-04-26T07:03:15;97772.66;;;16.13;47.21
967;BME280;56108;48.730;9.304;2023-04-26T07:05:24;97772.50;;;15.54;48.49
967;BME280;56108;48.730;9.304;2023-04-26T07:07:32;97769.78;;;15.23;48.78
967;BME280;56108;48.730;9.304;2023-04-26T07:09:40;97749.03;;;14.63;51.62
967;BME280;56108;48.730;9.304;2023-04-26T07:11:51;97754.31;;;15.57;49.10
967;BME280;56108;48.730;9.304;2023-04-26T07:14:03;97755.03;;;16.40;49.09
967;BME280;56108;48.730;9.304;2023-04-26T07:16:13;97769.81;;;17.04;47.08
967;BME280;56108;48.730;9.304;2023-04-26T07:18:22;97776.03;;;16.85;45.80
967;BME280;56108;48.730;9.304;2023-04-26T07:20:30;97788.13;;;17.47;40.55
967;BME280;56108;48.730;9.304;2023-04-26T07:22:39;97768.38;;;14.87;44.66
967;BME280;56108;48.730;9.304;2023-04-26T07:24:48;97777.81;;;15.02;43.50
967;BME280;56108;48.730;9.304;2023-04-26T07:26:59;97779.75;;;14.36;43.87
967;BME280;56108;48.730;9.304;2023-04-26T07:29:07;97776.31;;;14.45;43.47
967;BME280;56108;48.730;9.304;2023-04-26T07:31:16;97775.84;;;13.63;43.91
967;BME280;56108;48.730;9.304;2023-04-26T07:33:31;97779.50;;;14.39;43.60
967;BME280;56108;48.730;9.304;2023-04-26T07:35:41;97765.38;;;14.48;45.26
967;BME280;56108;48.730;9.304;2023-04-26T07:37:50;97773.84;;;14.65;43.40
967;BME280;56108;48.730;9.304;2023-04-26T07:40:00;97773.75;;;14.87;44.33
967;BME280;56108;48.730;9.304;2023-04-26T07:42:11;97765.88;;;13.07;47.11
967;BME280;56108;48.730;9.304;2023-04-26T07:44:19;97729.81;;;11.33;51.79
967;BME280;56108;48.730;9.304;2023-04-26T07:46:27;97724.47;;;11.45;52.59
967;BME280;56108;48.730;9.304;2023-04-26T07:48:35;97713.19;;;11.16;53.76
967;BME280;56108;48.730;9.304;2023-04-26T07:50:46;97710.97;;;11.36;54.25
967;BME280;56108;48.730;9.304;2023-04-26T07:52:56;97726.47;;;12.52;52.13
967;BME280;56108;48.730;9.304;2023-04-26T07:55:06;97719.66;;;12.13;52.65
967;BME280;56108;48.730;9.304;2023-04-26T07:57:16;97709.03;;;11.50;53.22
967;BME280;56108;48.730;9.304;2023-04-26T07:59:25;97715.06;;;11.65;51.70
967;BME280;56108;48.730;9.304;2023-04-26T08:01:33;97712.25;;;10.79;54.61
967;BME280;56108;48.730;9.304;2023-04-26T08:03:41;97713.28;;;10.51;55.08
967;BME280;56108;48.730;9.304;2023-04-26T08:05:50;97715.66;;;10.81;53.76
967;BME280;56108;48.730;9.304;2023-04-26T08:07:58;97716.59;;;10.80;54.16
967;BME280;56108;48.730;9.304;2023-04-26T08:10:10;97720.13;;;11.06;53.33
967;BME280;56108;48.730;9.304;2023-04-26T08:12:21;97704.78;;;11.85;54.96
967;BME280;56108;48.730;9.304;2023-04-26T08:14:29;97722.28;;;10.49;52.06
967;BME280;56108;48.730;9.304;2023-04-26T08:16:38;97714.31;;;10.49;53.50
967;BME280;56108;48.730;9.304;2023-04-26T08:18:46;97730.53;;;9.77;50.60
967;BME280;56108;48.730;9.304;2023-04-26T08:20:54;97730.38;;;9.37;52.42
967;BME280;56108;48.730;9.304;2023-04-26T08:23:02;97734.53;;;9.56;51.56
967;BME280;56108;48.730;9.304;2023-04-26T08:25:10;97720.31;;;9.43;53.99
967;BME280;56108;48.730;9.304;2023-04-26T08:27:21;97727.34;;;9.15;52.08
967;BME280;56108;48.730;9.304;2023-04-26T08:29:29;97727.31;;;9.58;52.94
967;BME280;56108;48.730;9.304;2023-04-26T08:31:37;97714.19;;;9.69;55.42
967;BME280;56108;48.730;9.304;2023-04-26T08:33:46;97707.25;;;9.25;56.38
967;BME280;56108;48.730;9.304;2023-04-26T08:35:55;97700.75;;;9.44;55.73
967;BME280;56108;48.730;9.304;2023-04-26T08:38:05;97720.41;;;9.27;54.20
967;BME280;56108;48.730;9.304;2023-04-26T08:40:21;97711.63;;;9.82;55.98
967;BME280;56108;48.730;9.304;2023-04-26T08:42:38;97709.34;;;10.57;55.93
967;BME280;56108;48.730;9.304;2023-04-26T08:44:47;97704.91;;;10.95;55.96
967;BME280;56108;48.730;9.304;2023-04-26T08:47:02;97711.31;;;11.81;54.73
967;BME280;56108;48.730;9.304;2023-04-26T08:49:17;97731.22;;;11.13;51.97
967;BME280;56108;48.730;9.304;2023-04-26T08:51:29;97728.84;;;11.59;52.57
967;BME280;56108;48.730;9.304;2023-04-26T08:53:39;97737.53;;;11.74;50.11
967;BME280;56108;48.730;9.304;2023-04-26T08:55:50;97735.63;;;12.37;51.72
967;BME280;56108;48.730;9.304;2023-04-26T08:58:01;97740.31;;;12.81;51.32
967;BME280;56108;48.730;9.304;2023-04-26T09:00:12;97743.63;;;12.96;49.92
967;BME280;56108;48.730;9.304;2023-04-26T09:02:26;97753.31;;;12.86;48.15
967;BME280;56108;48.730;9.304;2023-04-26T09:04:34;97731.81;;;12.52;52.23
967;BME280;56108;48.730;9.304;2023-04-26T09:06:43;97745.13;;;12.41;49.89
967;BME280;56108;48.730;9.304;2023-04-26T09:08:53;97729.25;;;12.74;53.56
967;BME280;56108;48.730;9.304;2023-04-26T09:11:02;97726.72;;;10.75;53.07
967;BME280;56108;48.730;9.304;2023-04-26T09:13:13;97725.78;;;11.14;53.35
967;BME280;56108;48.730;9.304;2023-04-26T09:15:24;97726.59;;;11.66;52.70
967;BME280;56108;48.730;9.304;2023-04-26T09:17:34;97741.94;;;11.75;50.87
967;BME280;56108;48.730;9.304;2023-04-26T09:19:43;97735.03;;;11.60;49.60
967;BME280;56108;48.730;9.304;2023-04-26T09:21:51;97723.25;;;12.36;52.67
967;BME280;56108;48.730;9.304;2023-04-26T09:24:00;97738.63;;;11.71;49.59
967;BME280;56108;48.730;9.304;2023-04-26T09:26:20;97730.91;;;11.30;50.58
967;BME280;56108;48.730;9.304;2023-04-26T09:28:33;97731.44;;;11.35;50.86
967;BME280;56108;48.730;9.304;2023-04-26T09:30:41;97725.56;;;12.64;51.55
967;BME280;56108;48.730;9.304;2023-04-26T09:32:51;97732.59;;;13.12;48.78
967;BME280;56108;48.730;9.304;2023-04-26T09:35:04;97742.53;;;12.28;48.72
967;BME280;56108;48.730;9.304;2023-04-26T09:37:13;97708.56;;;11.69;51.24
967;BME280;56108;48.730;9.304;2023-04-26T09:39:31;97711.59;;;10.63;52.81
967;BME280;56108;48.730;9.304;2023-04-26T09:41:42;97710.56;;;11.04;51.40
967;BME280;56108;48.730;9.304;2023-04-26T09:43:53;97694.13;;;11.35;54.48
967;BME280;56108;48.730;9.304;2023-04-26T09:46:02;97696.16;;;11.81;53.13
967;BME280;56108;48.730;9.304;2023-04-26T09:48:14;97699.53;;;12.44;53.02
967;BME280;56108;48.730;9.304;2023-04-26T09:50:29;97704.41;;;12.96;50.52
967;BME280;56108;48.730;9.304;2023-04-26T09:52:42;97699.50;;;13.37;51.84
967;BME280;56108;48.730;9.304;2023-04-26T09:54:51;97700.34;;;13.60;51.57
967;BME280;56108;48.730;9.304;2023-04-26T09:56:59;97709.69;;;13.65;50.72
967;BME280;56108;48.730;9.304;2023-04-26T09:59:10;97713.69;;;13.82;50.32
967;BME280;56108;48.730;9.304;2023-04-26T10:01:18;97710.88;;;13.72;50.54
967;BME280;56108;48.730;9.304;2023-04-26T10:03:28;97721.84;;;13.69;48.14
967;BME280;56108;48.730;9.304;2023-04-26T10:05:38;97732.66;;;13.45;47.00
967;BME280;56108;48.730;9.304;2023-04-26T10:07:49;97722.22;;;13.53;49.63
967;BME280;56108;48.730;9.304;2023-04-26T10:10:00;97717.00;;;12.94;49.03
967;BME280;56108;48.730;9.304;2023-04-26T10:12:10;97713.41;;;13.18;51.07
967;BME280;56108;48.730;9.304;2023-04-26T10:14:21;97723.06;;;13.31;48.68
967;BME280;56108;48.730;9.304;2023-04-26T10:16:29;97722.47;;;13.39;49.22
967;BME280;56108;48.730;9.304;2023-04-26T10:18:38;97713.34;;;13.75;49.56
967;BME280;56108;48.730;9.304;2023-04-26T10:20:50;97731.81;;;13.45;46.29
967;BME280;56108;48.730;9.304;2023-04-26T10:23:00;97717.00;;;13.74;47.26
967;BME280;56108;48.730;9.304;2023-04-26T10:25:10;97717.41;;;14.02;47.91
967;BME280;56108;48.730;9.304;2023-04-26T10:27:48;97703.75;;;14.16;49.60
967;BME280;56108;48.730;9.304;2023-04-26T10:30:09;97715.50;;;14.36;46.94
967;BME280;56108;48.730;9.304;2023-04-26T10:32:17;97719.28;;;13.90;45.90
967;BME280;56108;48.730;9.304;2023-04-26T10:34:26;97724.88;;;13.76;45.05
967;BME280;56108;48.730;9.304;2023-04-26T10:37:08;97714.28;;;14.51;47.17
967;BME280;56108;48.730;9.304;2023-04-26T10:39:18;97729.78;;;16.02;43.56
967;BME280;56108;48.730;9.304;2023-04-26T10:41:35;97737.47;;;15.67;41.39
967;BME280;56108;48.730;9.304;2023-04-26T10:43:44;97725.06;;;16.54;44.35
967;BME280;56108;48.730;9.304;2023-04-26T10:45:55;97747.84;;;16.69;40.28
967;BME280;56108;48.730;9.304;2023-04-26T10:48:20;97735.84;;;17.03;41.15
967;BME280;56108;48.730;9.304;2023-04-26T10:50:29;97738.88;;;16.21;43.21
967;BME280;56108;48.730;9.304;2023-04-26T10:52:38;97749.69;;;15.90;39.57
967;BME280;56108;48.730;9.304;2023-04-26T10:55:07;97721.44;;;14.72;43.11
967;BME280;56108;48.730;9.304;2023-04-26T10:57:16;97723.81;;;14.22;43.28
967;BME280;56108;48.730;9.304;2023-04-26T10:59:24;97709.81;;;14.61;46.50
967;BME280;56108;48.730;9.304;2023-04-26T11:01:53;97719.22;;;14.45;43.99
967;BME280;56108;48.730;9.304;2023-04-26T11:04:06;97718.28;;;13.13;45.31
967;BME280;56108;48.730;9.304;2023-04-26T11:06:15;97713.16;;;12.63;46.81
967;BME280;56108;48.730;9.304;2023-04-26T11:08:27;97702.88;;;12.11;46.72
967;BME280;56108;48.730;9.304;2023-04-26T11:10:36;97692.16;;;11.99;48.07
967;BME280;56108;48.730;9.304;2023-04-26T11:13:06;97699.16;;;12.37;46.01
967;BME280;56108;48.730;9.304;2023-04-26T11:15:14;97688.34;;;12.39;48.53
967;BME280;56108;48.730;9.304;2023-04-26T11:17:25;97695.03;;;12.44;46.20
967;BME280;56108;48.730;9.304;2023-04-26T11:19:34;97691.53;;;12.20;46.22
967;BME280;56108;48.730;9.304;2023-04-26T11:21:42;97687.00;;;11.85;48.18
967;BME280;56108;48.730;9.304;2023-04-26T11:23:54;97690.63;;;12.67;47.39
967;BME280;56108;48.730;9.304;2023-04-26T11:26:03;97674.22;;;13.41;48.52
967;BME280;56108;48.730;9.304;2023-04-26T11:28:12;97684.06;;;13.63;45.55
967;BME280;56108;48.730;9.304;2023-04-26T11:30:21;97676.44;;;14.01;46.34
967;BME280;56108;48.730;9.304;2023-04-26T11:32:32;97677.22;;;14.45;46.49
967;BME280;56108;48.730;9.304;2023-04-26T11:34:40;97666.88;;;15.14;47.64
967;BME280;56108;48.730;9.304;2023-04-26T11:36:53;97665.22;;;15.23;44.86
967;BME280;56108;48.730;9.304;2023-04-26T11:39:01;97665.50;;;15.60;43.95
967;BME280;56108;48.730;9.304;2023-04-26T11:41:09;97669.28;;;15.48;43.78
967;BME280;56108;48.730;9.304;2023-04-26T11:43:17;97656.97;;;15.05;46.24
967;BME280;56108;48.730;9.304;2023-04-26T11:45:26;97648.16;;;14.94;46.04
967;BME280;56108;48.730;9.304;2023-04-26T11:47:38;97647.94;;;14.85;45.57
967;BME280;56108;48.730;9.304;2023-04-26T11:49:47;97658.28;;;13.62;43.75